Time;durP1;ratioP1;P1;durP2;ratioP2;P2;SDS_P1;SDS_P2;PMS_P1;PMS_P2;Temp;Humidity;BMP_temperature;BMP_pressure;BME280_temperature;BME280_humidity;BME280_pressure;Samples;Min_cycle;Max_cycle;Signal;HPM_P1;HPM_P2
2023/11/12 00:02:17;;;;;;;78.20;44.30;;;;;;;6.29;100.00;97740.34;271413;1274;24065;-89
2023/11/12 00:08:19;;;;;;;76.20;45.20;;;;;;;6.31;100.00;97745.63;271395;1275;23879;-88
2023/11/12 02:47:52;;;;;;;60.10;37.00;;;;;;;6.12;100.00;97823.02;266300;1295;1210578;-81
2023/11/12 02:53:56;;;;;;;57.50;34.70;;;;;;;6.11;100.00;97834.11;271424;1280;23274;-81
2023/11/12 02:59:58;;;;;;;56.90;35.80;;;;;;;6.03;100.00;97845.83;272528;1272;22483;-81
2023/11/12 03:06:01;;;;;;;59.70;36.60;;;;;;;6.01;100.00;97847.04;272548;1272;23381;-82
2023/11/12 03:12:04;;;;;;;65.10;38.60;;;;;;;5.99;100.00;97851.54;272589;1272;25849;-82
2023/11/12 03:18:07;;;;;;;62.40;39.10;;;;;;;5.96;100.00;97853.83;272558;1272;22437;-81
2023/11/12 03:24:10;;;;;;;67.70;40.60;;;;;;;5.92;100.00;97862.02;272366;1272;22271;-81
2023/11/12 03:30:15;;;;;;;74.80;40.80;;;;;;;5.90;100.00;97867.34;272445;1272;22201;-81
2023/11/12 03:36:18;;;;;;;69.50;41.50;;;;;;;5.90;100.00;97865.01;272265;1272;22463;-81
2023/11/12 03:42:20;;;;;;;73.00;43.20;;;;;;;5.87;100.00;97864.73;272453;1272;22414;-81
2023/11/12 03:48:23;;;;;;;58.80;34.50;;;;;;;5.86;100.00;97867.29;272393;1272;23149;-82
2023/11/12 03:54:24;;;;;;;43.90;26.70;;;;;;;5.84;100.00;97867.50;272422;1272;22388;-81
2023/11/12 04:00:28;;;;;;;33.40;21.50;;;;;;;5.82;100.00;97868.08;272476;1272;23146;-81
2023/11/12 04:06:31;;;;;;;28.50;18.90;;;;;;;5.76;100.00;97868.08;272486;1272;23403;-81
2023/11/12 04:12:33;;;;;;;30.80;18.80;;;;;;;5.75;100.00;97869.91;272445;1272;22258;-81
2023/11/12 04:18:36;;;;;;;25.60;16.40;;;;;;;5.71;100.00;97868.48;272456;1272;22467;-82
2023/11/12 04:24:40;;;;;;;26.50;16.20;;;;;;;5.61;100.00;97874.64;272408;1272;23748;-82
2023/11/12 04:30:42;;;;;;;23.80;15.60;;;;;;;5.57;100.00;97880.41;272271;1272;22290;-81
2023/11/12 04:37:06;;;;;;;23.50;15.40;;;;;;;5.55;100.00;97885.57;272295;1267;22532;-81
2023/11/12 04:43:08;;;;;;;24.40;16.30;;;;;;;5.50;100.00;97893.66;272499;1272;22927;-81
2023/11/12 04:49:09;;;;;;;27.60;16.50;;;;;;;5.47;100.00;97898.57;272569;1272;22315;-82
2023/11/12 04:55:11;;;;;;;31.00;19.30;;;;;;;5.50;100.00;97906.99;273029;1279;22946;-82
2023/11/12 05:01:14;;;;;;;27.90;18.30;;;;;;;5.50;100.00;97914.60;272446;1272;22192;-81
2023/11/12 05:07:16;;;;;;;27.40;18.30;;;;;;;5.48;100.00;97924.64;272121;1272;24228;-81
2023/11/12 05:13:17;;;;;;;30.30;17.60;;;;;;;5.44;100.00;97936.69;271250;1272;23333;-81
2023/11/12 05:19:20;;;;;;;30.70;18.70;;;;;;;5.44;100.00;97942.20;272545;1272;22415;-81
2023/11/12 05:25:23;;;;;;;34.10;20.70;;;;;;;5.42;100.00;97950.08;272532;1272;22419;-81
2023/11/12 05:31:25;;;;;;;27.70;18.40;;;;;;;5.39;100.00;97952.35;270842;1272;22424;-82
2023/11/12 05:37:28;;;;;;;28.30;18.40;;;;;;;5.37;100.00;97953.88;272126;1272;22200;-83
2023/11/12 05:43:30;;;;;;;28.60;19.40;;;;;;;5.35;100.00;97962.00;271893;1266;23383;-81
2023/11/12 05:49:34;;;;;;;28.30;18.20;;;;;;;5.34;100.00;97971.42;272223;1272;22559;-81
2023/11/12 05:55:37;;;;;;;29.90;18.50;;;;;;;5.30;100.00;97975.80;270942;1272;22519;-84
2023/11/12 06:01:48;;;;;;;27.60;18.20;;;;;;;5.27;100.00;97985.51;271878;1269;22581;-82
2023/11/12 06:08:09;;;;;;;32.30;18.80;;;;;;;5.23;100.00;97990.02;271481;1272;22499;-82
2023/11/12 06:14:11;;;;;;;23.60;16.00;;;;;;;5.22;100.00;98002.02;271363;1272;22529;-82
2023/11/12 06:20:16;;;;;;;25.10;15.80;;;;;;;5.20;100.00;98008.57;272813;1272;22182;-82
2023/11/12 06:26:20;;;;;;;21.20;14.30;;;;;;;5.20;100.00;98018.43;272437;1272;22218;-82
2023/11/12 06:32:48;;;;;;;23.60;14.90;;;;;;;5.21;100.00;98025.88;272455;1272;22398;-82
2023/11/12 06:38:57;;;;;;;24.10;16.10;;;;;;;5.18;100.00;98028.31;270051;1272;22537;-82
2023/11/12 06:44:59;;;;;;;26.70;17.20;;;;;;;5.16;100.00;98037.74;269827;1272;23845;-82
2023/11/12 06:51:01;;;;;;;32.40;15.60;;;;;;;5.19;100.00;98037.86;270980;1262;23082;-81
2023/11/12 06:57:03;;;;;;;28.50;17.50;;;;;;;5.16;100.00;98039.92;270509;1272;22549;-83
2023/11/12 07:03:07;;;;;;;29.70;18.20;;;;;;;5.14;100.00;98045.38;270923;1272;22563;-83
2023/11/12 07:09:30;;;;;;;31.00;17.20;;;;;;;5.12;100.00;98048.97;272632;1272;22179;-81
2023/11/12 07:15:32;;;;;;;24.60;15.90;;;;;;;5.12;100.00;98057.88;271537;1272;22567;-81
2023/11/12 07:21:54;;;;;;;25.40;14.30;;;;;;;5.14;100.00;98061.25;271136;1272;25430;-81
2023/11/12 07:27:56;;;;;;;20.60;11.60;;;;;;;5.17;100.00;98065.34;272460;1272;22421;-82
2023/11/12 07:34:01;;;;;;;21.80;12.10;;;;;;;5.18;100.00;98066.45;272270;1272;22424;-81
2023/11/12 07:40:04;;;;;;;18.70;11.30;;;;;;;5.18;100.00;98067.31;272495;1272;22190;-82
2023/11/12 07:46:06;;;;;;;19.70;11.20;;;;;;;5.20;100.00;98067.42;271268;1272;22955;-82
2023/11/12 07:52:08;;;;;;;24.00;12.10;;;;;;;5.21;100.00;98072.95;272559;1272;22522;-82
2023/11/12 07:58:11;;;;;;;33.50;14.60;;;;;;;5.23;100.00;98081.66;270491;1266;23387;-81
2023/11/12 08:04:12;;;;;;;21.70;13.30;;;;;;;5.24;100.00;98086.94;270896;1266;23047;-83
2023/11/12 08:10:15;;;;;;;19.50;12.00;;;;;;;5.24;100.00;98093.14;272278;1272;22508;-82
2023/11/12 08:16:17;;;;;;;23.90;13.40;;;;;;;5.25;100.00;98101.08;271464;1272;23301;-82
2023/11/12 08:22:19;;;;;;;20.60;12.30;;;;;;;5.24;100.00;98102.20;269787;1272;25336;-82
2023/11/12 08:28:24;;;;;;;19.30;13.00;;;;;;;5.24;100.00;98108.95;270451;1272;22331;-82
2023/11/12 08:34:26;;;;;;;22.10;11.10;;;;;;;5.24;100.00;98115.39;270519;1272;22584;-82
2023/11/12 08:40:27;;;;;;;21.20;10.70;;;;;;;5.25;100.00;98130.08;269681;1272;24216;-84
2023/11/12 08:46:29;;;;;;;19.50;10.30;;;;;;;5.25;100.00;98134.70;271944;1272;22349;-82
2023/11/12 08:52:31;;;;;;;14.00;10.10;;;;;;;5.24;100.00;98137.95;272547;1261;22512;-82
2023/11/12 08:58:33;;;;;;;14.80;9.80;;;;;;;5.24;100.00;98148.73;272433;1272;23777;-82
2023/11/12 09:04:36;;;;;;;18.10;11.30;;;;;;;5.26;100.00;98159.54;272545;1272;23111;-82
2023/11/12 09:10:40;;;;;;;25.40;13.00;;;;;;;5.28;100.00;98165.55;272547;1272;22179;-81
2023/11/12 09:16:44;;;;;;;22.60;12.80;;;;;;;5.29;100.00;98165.42;272433;1272;23488;-83
2023/11/12 09:23:06;;;;;;;25.80;14.30;;;;;;;5.30;100.00;98174.03;272456;1272;22417;-83
2023/11/12 09:29:07;;;;;;;22.70;13.50;;;;;;;5.31;100.00;98178.77;272449;1272;22892;-81
2023/11/12 09:35:50;;;;;;;24.80;14.50;;;;;;;5.32;100.00;98184.25;272479;1272;22447;-82
2023/11/12 09:42:03;;;;;;;19.70;13.30;;;;;;;5.31;100.00;98187.95;272670;1272;22214;-82
2023/11/12 09:48:15;;;;;;;26.10;13.10;;;;;;;5.29;100.00;98189.85;272536;1272;22410;-81
2023/11/12 09:54:57;;;;;;;25.10;13.50;;;;;;;5.33;100.00;98192.70;272562;1272;22253;-81
2023/11/12 10:01:13;;;;;;;19.20;12.80;;;;;;;5.32;100.00;98192.92;272634;1272;22236;-82
2023/11/12 10:07:15;;;;;;;20.20;12.40;;;;;;;5.34;100.00;98197.67;272757;1272;22199;-82
2023/11/12 10:13:17;;;;;;;24.40;13.10;;;;;;;5.37;100.00;98200.21;272792;1275;22196;-82
2023/11/12 10:19:20;;;;;;;20.00;12.00;;;;;;;5.41;100.00;98197.44;272467;1272;23303;-82
2023/11/12 10:25:41;;;;;;;21.50;13.10;;;;;;;5.49;100.00;98198.97;272642;1272;22311;-82
2023/11/12 10:32:05;;;;;;;19.20;11.70;;;;;;;5.56;100.00;98198.70;272803;1272;23094;-82
2023/11/12 10:38:44;;;;;;;18.40;10.90;;;;;;;5.56;100.00;98206.39;272570;1272;22280;-82
2023/11/12 10:45:07;;;;;;;18.30;10.90;;;;;;;5.56;100.00;98207.09;272656;1272;22292;-81
2023/11/12 10:51:10;;;;;;;17.20;11.10;;;;;;;5.59;100.00;98212.13;272467;1272;23193;-82
2023/11/12 10:57:32;;;;;;;17.10;10.60;;;;;;;5.71;100.00;98215.13;272881;1272;23329;-82
2023/11/12 11:03:49;;;;;;;15.30;10.00;;;;;;;5.92;100.00;98212.02;272488;1272;22392;-82
2023/11/12 11:09:51;;;;;;;12.00;9.30;;;;;;;6.24;100.00;98207.88;272595;1272;22268;-83
2023/11/12 11:16:34;;;;;;;13.30;8.60;;;;;;;6.52;100.00;98209.31;272807;1272;22341;-81
2023/11/12 11:22:37;;;;;;;15.40;8.80;;;;;;;6.69;100.00;98206.29;272856;1272;22534;-83
2023/11/12 11:28:39;;;;;;;14.20;7.80;;;;;;;6.84;100.00;98204.48;272319;1270;22420;-82
2023/11/12 11:35:16;;;;;;;10.20;7.30;;;;;;;6.83;100.00;98206.02;272732;1272;22600;-82
2023/11/12 11:41:34;;;;;;;12.20;8.00;;;;;;;6.77;100.00;98202.44;272642;1272;22496;-82
2023/11/12 11:48:17;;;;;;;11.80;8.10;;;;;;;6.72;100.00;98204.15;273076;1277;22233;-82
2023/11/12 11:54:54;;;;;;;11.50;8.00;;;;;;;6.75;100.00;98210.17;272665;1273;22465;-82
2023/11/12 12:01:41;;;;;;;12.40;8.50;;;;;;;6.83;100.00;98214.95;272556;1272;22994;-81
2023/11/12 12:08:24;;;;;;;15.00;6.80;;;;;;;6.86;100.00;98209.16;272848;1272;22990;-82
2023/11/12 12:15:03;;;;;;;9.30;6.40;;;;;;;6.89;100.00;98202.13;273058;1273;22804;-82
2023/11/12 12:21:31;;;;;;;12.50;5.90;;;;;;;6.94;100.00;98199.86;273006;1272;22216;-82
2023/11/12 12:27:34;;;;;;;8.00;5.30;;;;;;;6.94;100.00;98203.13;272857;1273;22287;-82
2023/11/12 12:34:24;;;;;;;11.10;5.80;;;;;;;6.98;100.00;98204.27;272965;1272;22163;-81
2023/11/12 12:40:50;;;;;;;9.90;5.70;;;;;;;7.02;100.00;98206.10;273809;1275;22138;-82
2023/11/12 12:47:29;;;;;;;7.60;5.30;;;;;;;7.08;100.00;98207.52;273544;1269;22233;-82
2023/11/12 12:53:32;;;;;;;8.30;4.90;;;;;;;7.13;100.00;98210.27;273768;1276;22259;-81
2023/11/12 12:59:55;;;;;;;7.30;5.00;;;;;;;7.15;100.00;98215.52;273742;1270;23106;-82
2023/11/12 13:06:08;;;;;;;11.80;5.30;;;;;;;7.17;100.00;98213.05;273721;1270;22514;-82
2023/11/12 13:12:51;;;;;;;9.40;5.00;;;;;;;7.16;100.00;98209.77;272673;1269;22997;-82
2023/11/12 13:18:53;;;;;;;11.20;5.50;;;;;;;7.13;100.00;98217.12;271590;1269;22204;-82
2023/11/12 13:25:37;;;;;;;9.30;5.60;;;;;;;7.14;100.00;98225.84;273370;1267;22188;-82
2023/11/12 13:32:07;;;;;;;8.40;5.20;;;;;;;7.14;100.00;98223.59;273839;1276;22252;-82
2023/11/12 13:38:52;;;;;;;10.50;5.40;;;;;;;7.16;100.00;98226.24;273957;1275;22194;-82
2023/11/12 13:44:58;;;;;;;9.50;5.50;;;;;;;7.13;100.00;98238.89;273650;1269;22430;-83
2023/11/12 13:58:13;;;;;;;13.40;7.40;;;;;;;7.10;100.00;98249.91;273731;1271;23041;-82
2023/11/12 14:04:25;;;;;;;11.70;6.60;;;;;;;7.11;100.00;98256.22;273592;1273;22630;-82
2023/11/12 14:10:30;;;;;;;10.30;6.20;;;;;;;7.11;100.00;98264.69;273824;1270;22170;-82
2023/11/12 14:25:13;;;;;;;;;;;;;;;7.01;100.00;98284.93;273863;1273;22447;-82
2023/11/12 14:31:18;;;;;;;8.00;4.90;;;;;;;6.97;100.00;98287.13;274044;1275;22989;-82
2023/11/12 14:37:43;;;;;;;10.00;6.00;;;;;;;6.92;100.00;98281.84;273631;1269;22185;-82
2023/11/12 14:44:08;;;;;;;12.20;6.10;;;;;;;6.79;100.00;98277.22;273749;1267;22235;-82
2023/11/12 14:51:00;;;;;;;11.10;5.80;;;;;;;6.72;100.00;98287.23;273331;1266;162026;-82
2023/11/12 14:57:57;;;;;;;13.50;7.20;;;;;;;6.70;100.00;98302.04;273862;1273;22688;-82
2023/11/12 15:04:24;;;;;;;13.10;7.20;;;;;;;6.68;100.00;98308.40;273778;1269;22276;-82
2023/11/12 15:11:24;;;;;;;13.10;6.80;;;;;;;6.65;100.00;98311.52;273853;1254;22186;-83
2023/11/12 15:17:56;;;;;;;17.80;8.80;;;;;;;6.49;100.00;98321.67;273764;1269;22188;-82
2023/11/12 15:24:32;;;;;;;12.10;7.20;;;;;;;6.36;100.00;98325.52;274025;1270;22364;-82
2023/11/12 15:31:06;;;;;;;14.50;7.30;;;;;;;6.16;100.00;98328.42;273816;1269;22285;-82
2023/11/12 15:37:57;;;;;;;12.40;7.30;;;;;;;5.93;100.00;98327.15;273851;1271;22200;-82
2023/11/12 15:44:14;;;;;;;11.30;7.50;;;;;;;5.77;100.00;98331.39;273771;1269;22178;-83
2023/11/12 15:50:46;;;;;;;15.30;8.00;;;;;;;5.79;100.00;98340.42;273395;1269;22038;-82
2023/11/12 15:56:49;;;;;;;17.10;8.60;;;;;;;5.76;100.00;98344.16;273412;1267;22397;-82
2023/11/12 16:02:52;;;;;;;13.30;8.20;;;;;;;5.74;100.00;98345.98;273779;1272;22376;-82
2023/11/12 16:09:22;;;;;;;26.10;11.70;;;;;;;5.60;100.00;98336.33;272911;1272;22361;-82
2023/11/12 16:15:48;;;;;;;14.90;7.60;;;;;;;5.41;100.00;98340.13;273567;1273;22176;-82
2023/11/12 16:22:16;;;;;;;16.60;8.50;;;;;;;5.30;100.00;98346.17;272966;1268;22447;-82
2023/11/12 16:28:38;;;;;;;17.00;8.90;;;;;;;5.28;100.00;98344.05;273931;1270;22171;-82
2023/11/12 16:34:41;;;;;;;17.50;9.00;;;;;;;5.23;100.00;98344.71;272941;1264;23060;-81
2023/11/12 16:41:05;;;;;;;14.70;7.90;;;;;;;5.12;100.00;98352.75;273364;1260;22380;-82
2023/11/12 16:47:32;;;;;;;12.20;7.70;;;;;;;4.98;100.00;98352.27;273987;1270;23248;-81
2023/11/12 16:53:34;;;;;;;13.90;7.90;;;;;;;5.01;100.00;98364.53;274032;1267;22418;-82
2023/11/12 17:00:04;;;;;;;15.70;8.00;;;;;;;5.09;100.00;98373.16;273890;1274;22246;-82
2023/11/12 17:07:02;;;;;;;13.50;7.90;;;;;;;5.18;100.00;98383.11;272762;1267;22766;-81
2023/11/12 17:13:33;;;;;;;14.90;9.00;;;;;;;5.17;100.00;98387.52;272774;1267;22386;-82
2023/11/12 17:19:44;;;;;;;16.20;9.20;;;;;;;5.09;100.00;98391.20;272247;1260;22392;-82
2023/11/12 17:25:46;;;;;;;18.90;10.50;;;;;;;5.03;100.00;98394.66;273020;1267;22569;-82
2023/11/12 17:32:15;;;;;;;18.00;10.20;;;;;;;5.00;100.00;98392.93;273533;1270;22258;-82
2023/11/12 17:38:42;;;;;;;16.20;8.90;;;;;;;5.01;100.00;98390.87;271671;1267;22451;-83
2023/11/12 17:44:45;;;;;;;17.40;9.70;;;;;;;5.05;100.00;98392.59;272363;1267;24243;-83
2023/11/12 17:51:13;;;;;;;16.00;9.00;;;;;;;5.07;100.00;98399.38;272677;1267;22259;-82
2023/11/12 17:57:56;;;;;;;16.90;8.50;;;;;;;5.02;100.00;98402.52;272038;1269;22743;-82
2023/11/12 18:04:24;;;;;;;16.60;7.80;;;;;;;4.97;100.00;98405.20;266139;1267;10002184;-83
2023/11/12 18:10:45;;;;;;;13.90;7.60;;;;;;;4.99;100.00;98407.86;273816;1267;22338;-83
2023/11/12 18:17:31;;;;;;;;;;;;;;;4.96;100.00;98412.92;273754;1265;22471;-82
2023/11/12 18:24:33;;;;;;;16.60;8.20;;;;;;;4.95;100.00;98419.71;274018;1273;22220;-83
2023/11/12 18:31:31;;;;;;;13.50;7.90;;;;;;;4.93;100.00;98427.49;274037;1267;22187;-83
2023/11/12 18:38:07;;;;;;;15.40;7.00;;;;;;;4.88;100.00;98431.80;273692;1275;22989;-83
2023/11/12 18:44:10;;;;;;;18.20;9.20;;;;;;;4.85;100.00;98436.35;273824;1267;22213;-83
2023/11/12 18:50:41;;;;;;;15.80;8.60;;;;;;;4.80;100.00;98438.26;274072;1269;22385;-83
2023/11/12 18:57:18;;;;;;;19.70;9.30;;;;;;;4.69;100.00;98433.41;273998;1272;22228;-84
2023/11/12 19:04:11;;;;;;;19.70;10.80;;;;;;;4.64;100.00;98438.88;273930;1275;22188;-83
2023/11/12 19:11:03;;;;;;;24.30;13.20;;;;;;;4.57;100.00;98448.13;273871;1257;22323;-83
2023/11/12 19:17:07;;;;;;;30.40;15.60;;;;;;;4.49;100.00;98458.86;273665;1266;23476;-84
2023/11/12 19:23:09;;;;;;;26.50;15.90;;;;;;;4.39;100.00;98465.47;273668;1271;22871;-83
2023/11/12 19:29:45;;;;;;;32.40;17.80;;;;;;;4.15;100.00;98476.50;273966;1269;22851;-83
2023/11/12 19:36:14;;;;;;;33.40;16.90;;;;;;;4.00;100.00;98479.48;273817;1269;22217;-83
2023/11/12 19:42:42;;;;;;;28.80;15.50;;;;;;;3.88;100.00;98485.86;273934;1270;22470;-83
2023/11/12 19:49:08;;;;;;;33.20;16.00;;;;;;;3.68;100.00;98481.00;273850;1269;22191;-84
2023/11/12 19:55:33;;;;;;;23.20;11.60;;;;;;;3.55;100.00;98487.05;273738;1271;22740;-83
2023/11/12 20:02:06;;;;;;;29.10;15.00;;;;;;;3.50;100.00;98491.59;273204;1260;22421;-83
2023/11/12 20:08:43;;;;;;;32.50;16.40;;;;;;;3.40;100.00;98491.20;273843;1269;23307;-83
2023/11/12 20:15:10;;;;;;;24.30;12.10;;;;;;;3.30;100.00;98495.45;273374;1267;22840;-83
2023/11/12 20:21:39;;;;;;;37.10;18.30;;;;;;;3.07;100.00;98501.53;273619;1269;22216;-83
2023/11/12 20:28:04;;;;;;;26.70;14.90;;;;;;;2.89;100.00;98505.56;273720;1267;22263;-82
2023/11/12 20:34:27;;;;;;;35.40;17.60;;;;;;;2.86;100.00;98506.85;273526;1267;22221;-83
2023/11/12 20:40:32;;;;;;;39.80;18.10;;;;;;;2.64;100.00;98511.89;273951;1269;22244;-83
2023/11/12 20:47:21;;;;;;;44.40;22.40;;;;;;;2.45;100.00;98517.49;273984;1270;22806;-83
2023/11/12 20:54:01;;;;;;;42.80;24.10;;;;;;;2.40;100.00;98518.17;273826;1269;23613;-83
2023/11/12 21:00:12;;;;;;;40.90;22.30;;;;;;;2.29;100.00;98517.15;273810;1267;22267;-83
2023/11/12 21:06:15;;;;;;;36.20;20.90;;;;;;;2.20;100.00;98520.32;273940;1275;22957;-83
2023/11/12 21:12:58;;;;;;;41.30;19.10;;;;;;;2.11;100.00;98523.38;273725;1267;23369;-83
2023/11/12 21:19:04;;;;;;;45.50;21.60;;;;;;;2.00;100.00;98511.23;273868;1267;22225;-83
2023/11/12 21:25:32;;;;;;;37.70;18.80;;;;;;;1.93;100.00;98502.95;273421;1267;22230;-83
2023/11/12 21:31:34;;;;;;;36.60;16.80;;;;;;;1.89;100.00;98506.05;273786;1267;22211;-83
2023/11/12 21:38:01;;;;;;;35.00;17.50;;;;;;;1.86;100.00;98503.95;273714;1267;22554;-83
2023/11/12 21:44:08;;;;;;;36.20;17.60;;;;;;;1.85;100.00;98504.50;272705;1267;22195;-83
2023/11/12 21:50:40;;;;;;;25.40;14.00;;;;;;;1.86;100.00;98512.19;272325;1267;23397;-83
2023/11/12 21:57:03;;;;;;;25.50;14.40;;;;;;;1.90;100.00;98516.05;272186;1267;22206;-83
2023/11/12 22:03:07;;;;;;;24.80;13.90;;;;;;;1.93;100.00;98514.67;273245;1268;22553;-83
2023/11/12 22:09:50;;;;;;;25.30;14.40;;;;;;;1.98;100.00;98513.16;273239;1269;22956;-83
2023/11/12 22:15:53;;;;;;;24.30;14.80;;;;;;;2.08;100.00;98517.87;273642;1269;22181;-83
2023/11/12 22:21:58;;;;;;;28.80;13.80;;;;;;;2.16;100.00;98521.70;272539;1267;22536;-83
2023/11/12 22:28:01;;;;;;;28.60;13.70;;;;;;;2.25;100.00;98528.73;270859;1267;22566;-83
2023/11/12 22:34:03;;;;;;;26.60;14.40;;;;;;;2.37;100.00;98520.24;271688;1259;23417;-83
2023/11/12 22:40:31;;;;;;;26.20;14.30;;;;;;;2.53;100.00;98524.86;272770;1267;22220;-83
2023/11/12 22:46:55;;;;;;;31.00;14.80;;;;;;;2.65;100.00;98534.55;273136;1267;23696;-83
2023/11/12 22:53:44;;;;;;;28.20;15.20;;;;;;;2.73;100.00;98533.70;271915;1265;22266;-82
2023/11/12 22:59:46;;;;;;;25.90;14.40;;;;;;;2.87;100.00;98538.09;273757;1269;22268;-82
2023/11/12 23:05:54;;;;;;;23.10;13.30;;;;;;;3.01;100.00;98546.16;273589;1266;22517;-83
2023/11/12 23:11:56;;;;;;;26.00;15.00;;;;;;;3.11;100.00;98549.18;272583;1267;22578;-83
2023/11/12 23:18:20;;;;;;;26.80;14.70;;;;;;;3.18;100.00;98548.31;272101;1267;22186;-84
2023/11/12 23:24:47;;;;;;;27.40;13.80;;;;;;;3.20;100.00;98551.66;273609;1267;23353;-83
2023/11/12 23:31:21;;;;;;;23.10;12.70;;;;;;;3.22;100.00;98550.24;273857;1267;23002;-83
2023/11/12 23:37:26;;;;;;;28.30;16.30;;;;;;;3.27;100.00;98553.34;273788;1268;22621;-83
2023/11/12 23:44:18;;;;;;;28.30;15.10;;;;;;;3.29;100.00;98554.55;273799;1269;22198;-83
2023/11/12 23:50:45;;;;;;;32.40;16.60;;;;;;;3.30;100.00;98555.91;274039;1267;22245;-83
2023/11/12 23:57:29;;;;;;;28.10;16.40;;;;;;;3.33;100.00;98552.46;273789;1270;22218;-83
